SAS2870 EKCH-ENBR
Flight info
| Callsign | SAS2870 |
|---|---|
| Flight time | N/A |
| Altitude | 34000 |
| Route | GOLGA DCT BADAB |
| Aircraft | A320/M-SDE3FGHIRWY/LB1 |
Departure
| Time | 2026-04-23 19:45 |
|---|---|
| Airport | Copenhagen Kastrup Airport (EKCH) |
Arrival
| Time | N/A |
|---|---|
| Airport | Bergen Airport, Flesland (ENBR) |
| Time | Latitude | Longitude | Altitude | Speed | Heading |
|---|---|---|---|---|---|
| 2026-04-23 19:04 | 55.62648 | 12.64555 | 24 ft | 0 kts | 282° |
| 2026-04-23 19:30 | 55.62646 | 12.64569 | 24 ft | 2 kts | 282° |
| 2026-04-23 19:30 | 55.62642 | 12.64599 | 24 ft | 2 kts | 282° |
| 2026-04-23 19:30 | 55.62646 | 12.64650 | 25 ft | 1 kts | 194° |
| 2026-04-23 19:35 | 55.62645 | 12.64650 | 24 ft | 1 kts | 194° |
| 2026-04-23 19:36 | 55.62627 | 12.64647 | 26 ft | 4 kts | 182° |
| 2026-04-23 19:36 | 55.62587 | 12.64647 | 24 ft | 7 kts | 180° |
| 2026-04-23 19:36 | 55.62527 | 12.64650 | 24 ft | 10 kts | 175° |
| 2026-04-23 19:36 | 55.62446 | 12.64667 | 25 ft | 13 kts | 173° |
| 2026-04-23 19:37 | 55.62351 | 12.64684 | 26 ft | 15 kts | 167° |
| 2026-04-23 19:37 | 55.62275 | 12.64779 | 24 ft | 12 kts | 170° |
| 2026-04-23 19:37 | 55.62187 | 12.64745 | 25 ft | 14 kts | 213° |
| 2026-04-23 19:37 | 55.62102 | 12.64643 | 24 ft | 16 kts | 214° |
| 2026-04-23 19:38 | 55.62001 | 12.64534 | 24 ft | 18 kts | 206° |
| 2026-04-23 19:38 | 55.61900 | 12.64514 | 24 ft | 16 kts | 176° |
| 2026-04-23 19:38 | 55.61794 | 12.64544 | 24 ft | 15 kts | 169° |
| 2026-04-23 19:38 | 55.61682 | 12.64551 | 24 ft | 15 kts | 192° |
| 2026-04-23 19:39 | 55.61604 | 12.64486 | 26 ft | 13 kts | 210° |
| 2026-04-23 19:39 | 55.61526 | 12.64394 | 25 ft | 15 kts | 214° |
| 2026-04-23 19:39 | 55.61445 | 12.64295 | 25 ft | 12 kts | 214° |
| 2026-04-23 19:39 | 55.61368 | 12.64207 | 24 ft | 14 kts | 213° |
| 2026-04-23 19:40 | 55.61278 | 12.64103 | 27 ft | 17 kts | 213° |
| 2026-04-23 19:40 | 55.61166 | 12.63978 | 25 ft | 21 kts | 212° |
| 2026-04-23 19:40 | 55.61051 | 12.63845 | 25 ft | 18 kts | 213° |
| 2026-04-23 19:40 | 55.60957 | 12.63736 | 25 ft | 16 kts | 213° |
| 2026-04-23 19:41 | 55.60855 | 12.63624 | 24 ft | 19 kts | 212° |
| 2026-04-23 19:41 | 55.60738 | 12.63491 | 25 ft | 21 kts | 213° |
| 2026-04-23 19:41 | 55.60609 | 12.63325 | 24 ft | 24 kts | 221° |
| 2026-04-23 19:41 | 55.60501 | 12.63226 | 25 ft | 16 kts | 167° |
| 2026-04-23 19:42 | 55.60475 | 12.63262 | 24 ft | 0 kts | 136° |
| 2026-04-23 19:43 | 55.60457 | 12.63294 | 24 ft | 8 kts | 133° |
| 2026-04-23 19:43 | 55.60406 | 12.63405 | 26 ft | 14 kts | 107° |
| 2026-04-23 19:44 | 55.60467 | 12.63544 | 24 ft | 18 kts | 41° |
| 2026-04-23 19:44 | 55.60706 | 12.63909 | 27 ft | 81 kts | 41° |
| 2026-04-23 19:44 | 55.61299 | 12.64827 | 29 ft | 139 kts | 41° |
| 2026-04-23 19:44 | 55.62094 | 12.66040 | 423 ft | 150 kts | 40° |
| 2026-04-23 19:45 | 55.62881 | 12.67254 | 1045 ft | 150 kts | 38° |
| 2026-04-23 19:45 | 55.63675 | 12.68494 | 1504 ft | 162 kts | 38° |
| 2026-04-23 19:45 | 55.64582 | 12.69903 | 1812 ft | 185 kts | 38° |
| 2026-04-23 19:45 | 55.65735 | 12.71099 | 2117 ft | 202 kts | 5° |
| 2026-04-23 19:46 | 55.67182 | 12.70771 | 2547 ft | 223 kts | 343° |
| 2026-04-23 19:46 | 55.68749 | 12.70032 | 3198 ft | 240 kts | 346° |
| 2026-04-23 19:46 | 55.70424 | 12.69603 | 4158 ft | 246 kts | 353° |
| 2026-04-23 19:46 | 55.72141 | 12.69415 | 5176 ft | 248 kts | 356° |
| 2026-04-23 19:47 | 55.73876 | 12.69302 | 6170 ft | 251 kts | 356° |
| 2026-04-23 19:47 | 55.75631 | 12.69193 | 7115 ft | 253 kts | 356° |
| 2026-04-23 19:47 | 55.77398 | 12.69068 | 8036 ft | 255 kts | 356° |
| 2026-04-23 19:47 | 55.79183 | 12.68921 | 8961 ft | 258 kts | 355° |
| 2026-04-23 19:48 | 55.80936 | 12.68269 | 9874 ft | 259 kts | 337° |
| 2026-04-23 19:48 | 55.82461 | 12.66537 | 10665 ft | 265 kts | 318° |
| 2026-04-23 19:48 | 55.83593 | 12.63836 | 11174 ft | 287 kts | 299° |
| 2026-04-23 19:48 | 55.84384 | 12.60402 | 11433 ft | 310 kts | 295° |
| 2026-04-23 19:49 | 55.85182 | 12.56769 | 12016 ft | 319 kts | 295° |
| 2026-04-23 19:49 | 55.85991 | 12.53062 | 12727 ft | 324 kts | 295° |
| 2026-04-23 19:49 | 55.86814 | 12.49296 | 13439 ft | 328 kts | 295° |
| 2026-04-23 19:49 | 55.87649 | 12.45488 | 14114 ft | 333 kts | 295° |
| 2026-04-23 19:50 | 55.88501 | 12.41610 | 14757 ft | 337 kts | 295° |
| 2026-04-23 19:50 | 55.89362 | 12.37693 | 15408 ft | 340 kts | 295° |
| 2026-04-23 19:50 | 55.90284 | 12.33844 | 16054 ft | 341 kts | 302° |
| 2026-04-23 19:50 | 55.91563 | 12.30298 | 16690 ft | 341 kts | 308° |
| 2026-04-23 19:51 | 55.92943 | 12.26822 | 17353 ft | 344 kts | 309° |
| 2026-04-23 19:51 | 55.94336 | 12.23316 | 18012 ft | 348 kts | 309° |
| 2026-04-23 19:51 | 55.95736 | 12.19784 | 18640 ft | 351 kts | 308° |
| 2026-04-23 19:51 | 55.97150 | 12.16201 | 19221 ft | 354 kts | 308° |
| 2026-04-23 19:52 | 55.98571 | 12.12593 | 19847 ft | 357 kts | 308° |
| 2026-04-23 19:52 | 56.00001 | 12.08949 | 20472 ft | 359 kts | 308° |
| 2026-04-23 19:52 | 56.01441 | 12.05275 | 21060 ft | 363 kts | 308° |
| 2026-04-23 19:52 | 56.02984 | 12.01682 | 21625 ft | 364 kts | 315° |
| 2026-04-23 19:53 | 56.04862 | 11.98668 | 22135 ft | 365 kts | 326° |
| 2026-04-23 19:53 | 56.07036 | 11.96289 | 22625 ft | 369 kts | 332° |
| 2026-04-23 19:53 | 56.09290 | 11.94025 | 23161 ft | 373 kts | 332° |
| 2026-04-23 19:53 | 56.11563 | 11.91732 | 23690 ft | 377 kts | 331° |
| 2026-04-23 19:54 | 56.13852 | 11.89414 | 24146 ft | 380 kts | 331° |
| 2026-04-23 19:54 | 56.16157 | 11.87069 | 24614 ft | 382 kts | 331° |
| 2026-04-23 19:54 | 56.18475 | 11.84703 | 25080 ft | 384 kts | 331° |
| 2026-04-23 19:54 | 56.20808 | 11.82317 | 25541 ft | 386 kts | 331° |
| 2026-04-23 19:55 | 56.23143 | 11.79921 | 25998 ft | 388 kts | 331° |
| 2026-04-23 19:55 | 56.25492 | 11.77510 | 26446 ft | 390 kts | 330° |
| 2026-04-23 19:55 | 56.27828 | 11.75114 | 26879 ft | 392 kts | 330° |
| 2026-04-23 19:55 | 56.30206 | 11.72680 | 27340 ft | 393 kts | 331° |
| 2026-04-23 19:56 | 56.32558 | 11.70160 | 27766 ft | 395 kts | 326° |
| 2026-04-23 19:56 | 56.34689 | 11.67006 | 28178 ft | 399 kts | 316° |
| 2026-04-23 19:56 | 56.36637 | 11.63427 | 28591 ft | 401 kts | 316° |
| 2026-04-23 19:56 | 56.38589 | 11.59819 | 29015 ft | 403 kts | 316° |
| 2026-04-23 19:57 | 56.40555 | 11.56185 | 29400 ft | 405 kts | 315° |
| 2026-04-23 19:57 | 56.42529 | 11.52523 | 29780 ft | 408 kts | 315° |
| 2026-04-23 19:57 | 56.44512 | 11.48845 | 30175 ft | 410 kts | 315° |
| 2026-04-23 19:57 | 56.46503 | 11.45152 | 30523 ft | 412 kts | 315° |
| 2026-04-23 19:58 | 56.48509 | 11.41429 | 30838 ft | 414 kts | 315° |
| 2026-04-23 19:58 | 56.50525 | 11.37684 | 31154 ft | 416 kts | 315° |
| 2026-04-23 19:58 | 56.52531 | 11.33952 | 31459 ft | 418 kts | 315° |
| 2026-04-23 19:58 | 56.54564 | 11.30160 | 31761 ft | 420 kts | 315° |
| 2026-04-23 19:59 | 56.56598 | 11.26357 | 32178 ft | 419 kts | 315° |
| 2026-04-23 19:59 | 56.58628 | 11.22553 | 32634 ft | 418 kts | 314° |
| 2026-04-23 19:59 | 56.60642 | 11.18773 | 33055 ft | 417 kts | 314° |
| 2026-04-23 19:59 | 56.62658 | 11.14979 | 33509 ft | 416 kts | 314° |
| 2026-04-23 20:00 | 56.64668 | 11.11195 | 33961 ft | 415 kts | 314° |
| 2026-04-23 20:00 | 56.66671 | 11.07419 | 34132 ft | 414 kts | 314° |
| 2026-04-23 20:00 | 56.68650 | 11.03684 | 34155 ft | 406 kts | 314° |
| 2026-04-23 20:01 | 56.72544 | 10.96319 | 34156 ft | 402 kts | 314° |
| 2026-04-23 20:01 | 56.76414 | 10.88973 | 34161 ft | 402 kts | 314° |
| 2026-04-23 20:02 | 56.80279 | 10.81604 | 34154 ft | 402 kts | 314° |
| 2026-04-23 20:02 | 56.84135 | 10.74223 | 34163 ft | 402 kts | 314° |
| 2026-04-23 20:03 | 56.87996 | 10.66819 | 34167 ft | 402 kts | 314° |
| 2026-04-23 20:03 | 56.91856 | 10.59402 | 34150 ft | 402 kts | 313° |
| 2026-04-23 20:04 | 56.95708 | 10.51955 | 34164 ft | 403 kts | 313° |
| 2026-04-23 20:04 | 56.99536 | 10.44548 | 34165 ft | 403 kts | 313° |
| 2026-04-23 20:05 | 57.02759 | 10.38295 | 34173 ft | 402 kts | 313° |
| 2026-04-23 20:05 | 57.07226 | 10.29607 | 34160 ft | 402 kts | 313° |
| 2026-04-23 20:06 | 57.11064 | 10.22100 | 34157 ft | 402 kts | 313° |
| 2026-04-23 20:06 | 57.14892 | 10.14585 | 34153 ft | 402 kts | 313° |
| 2026-04-23 20:07 | 57.18700 | 10.07100 | 34144 ft | 403 kts | 312° |
| 2026-04-23 20:07 | 57.22473 | 9.99640 | 34136 ft | 404 kts | 312° |
| 2026-04-23 20:08 | 57.26307 | 9.92055 | 34155 ft | 404 kts | 312° |
| 2026-04-23 20:08 | 57.30153 | 9.84416 | 34157 ft | 404 kts | 312° |
| 2026-04-23 20:09 | 57.33954 | 9.76836 | 34164 ft | 404 kts | 311° |
| 2026-04-23 20:09 | 57.37764 | 9.69204 | 34167 ft | 404 kts | 311° |
| 2026-04-23 20:10 | 57.40937 | 9.62848 | 34173 ft | 403 kts | 312° |
| 2026-04-23 20:10 | 57.45402 | 9.53883 | 34162 ft | 404 kts | 311° |